createdAt,value
2022-09-14T00:00:33.255Z,81.20
2022-09-14T00:02:59.850Z,81.54
2022-09-14T00:05:26.343Z,82.24
2022-09-14T00:07:52.729Z,82.25
2022-09-14T00:10:19.146Z,81.89
2022-09-14T00:12:45.584Z,81.77
2022-09-14T00:15:11.998Z,81.92
2022-09-14T00:17:38.484Z,81.71
2022-09-14T00:20:05.404Z,81.88
2022-09-14T00:22:31.816Z,82.28
2022-09-14T00:24:58.227Z,82.08
2022-09-14T00:27:24.634Z,82.58
2022-09-14T00:29:51.088Z,82.43
2022-09-14T00:32:18.025Z,82.56
2022-09-14T00:34:44.638Z,83.42
2022-09-14T00:37:11.583Z,83.00
2022-09-14T00:39:37.995Z,83.30
2022-09-14T00:42:06.047Z,83.95
2022-09-14T00:44:32.380Z,83.74
2022-09-14T00:47:02.551Z,83.34
2022-09-14T00:49:35.876Z,83.28
2022-09-14T00:52:19.092Z,83.53
2022-09-14T00:54:48.739Z,83.99
2022-09-14T00:57:17.009Z,84.11
2022-09-14T00:59:44.268Z,83.83
2022-09-14T01:02:14.867Z,83.84
2022-09-14T01:04:42.402Z,83.63
2022-09-14T01:07:27.444Z,83.64
2022-09-14T01:10:08.703Z,83.32
2022-09-14T01:12:49.451Z,83.42
2022-09-14T01:15:21.406Z,84.24
2022-09-14T01:18:07.849Z,83.38
2022-09-14T01:20:40.758Z,83.70
2022-09-14T01:23:27.476Z,83.94
2022-09-14T01:26:16.110Z,83.68
2022-09-14T01:29:01.100Z,83.20
2022-09-14T01:31:47.378Z,83.17
2022-09-14T01:34:25.970Z,83.03
2022-09-14T01:36:59.674Z,83.04
2022-09-14T01:39:31.548Z,83.52
2022-09-14T01:41:59.649Z,83.66
2022-09-14T01:44:32.805Z,83.35
2022-09-14T01:47:12.700Z,83.07
2022-09-14T01:49:44.138Z,83.18
2022-09-14T01:52:16.345Z,83.28
2022-09-14T01:54:56.802Z,83.38
2022-09-14T01:57:32.864Z,83.38
2022-09-14T02:00:04.977Z,83.98
2022-09-14T02:02:40.400Z,83.85
2022-09-14T02:05:16.800Z,83.88
2022-09-14T02:07:43.280Z,83.70
2022-09-14T02:10:13.185Z,83.45
2022-09-14T02:12:40.438Z,83.29
2022-09-14T02:15:09.791Z,83.18
2022-09-14T02:17:36.363Z,83.35
2022-09-14T02:20:05.736Z,83.01
2022-09-14T02:22:32.171Z,83.15
2022-09-14T02:24:59.683Z,83.09
2022-09-14T02:27:26.246Z,83.62
2022-09-14T02:29:53.228Z,83.00
2022-09-14T02:32:34.647Z,83.02
2022-09-14T02:35:32.497Z,82.97
2022-09-14T02:38:05.166Z,82.57
2022-09-14T02:40:37.857Z,82.91
2022-09-14T02:43:07.260Z,82.95
2022-09-14T02:46:01.356Z,82.91
2022-09-14T02:48:55.487Z,83.15
2022-09-14T02:51:34.154Z,83.31
2022-09-14T02:54:15.507Z,83.08
2022-09-14T02:56:42.230Z,82.81
2022-09-14T02:59:08.619Z,83.93
2022-09-14T03:01:35.051Z,83.11
2022-09-14T03:04:01.714Z,81.84
2022-09-14T03:06:28.112Z,81.55
2022-09-14T03:08:54.508Z,81.82
2022-09-14T03:11:20.952Z,80.97
2022-09-14T03:13:47.435Z,81.27
2022-09-14T03:16:16.074Z,81.19
2022-09-14T03:18:43.052Z,81.36
2022-09-14T03:21:15.244Z,81.31
2022-09-14T03:23:44.466Z,81.37
2022-09-14T03:26:13.874Z,81.68
2022-09-14T03:28:40.751Z,82.03
2022-09-14T03:31:09.562Z,81.94
2022-09-14T03:33:36.554Z,82.34
2022-09-14T03:36:14.849Z,82.53
2022-09-14T03:38:46.134Z,82.81
2022-09-14T03:41:13.780Z,82.50
2022-09-14T03:43:41.218Z,83.15
2022-09-14T03:46:16.763Z,83.33
2022-09-14T03:48:44.123Z,83.50
2022-09-14T03:51:12.289Z,83.97
2022-09-14T03:53:39.463Z,84.15
2022-09-14T03:56:11.609Z,84.03
2022-09-14T03:58:38.660Z,85.51
2022-09-14T04:01:10.551Z,85.78
2022-09-14T04:03:37.486Z,85.26
2022-09-14T04:06:05.350Z,84.98
2022-09-14T04:08:38.118Z,85.58
2022-09-14T04:11:24.654Z,84.91
2022-09-14T04:13:52.183Z,86.07
2022-09-14T04:16:20.849Z,85.43
2022-09-14T04:18:48.062Z,86.90
2022-09-14T04:21:19.954Z,86.95
2022-09-14T04:24:12.804Z,86.49
2022-09-14T04:26:34.018Z,87.13
2022-09-14T04:29:00.660Z,86.91
2022-09-14T04:31:27.192Z,87.02
2022-09-14T04:33:56.861Z,87.53
2022-09-14T04:36:28.121Z,88.33
2022-09-14T04:38:55.883Z,88.14
2022-09-14T04:41:22.892Z,88.01
2022-09-14T04:43:51.297Z,88.00
2022-09-14T04:46:20.345Z,88.20
2022-09-14T04:48:47.134Z,88.57
2022-09-14T04:51:19.719Z,88.19
2022-09-14T04:53:49.948Z,88.48
2022-09-14T04:56:17.527Z,88.23
2022-09-14T04:58:50.800Z,87.71
2022-09-14T05:01:23.860Z,87.50
2022-09-14T05:03:51.175Z,87.89
2022-09-14T05:06:26.212Z,88.12
2022-09-14T05:08:53.852Z,87.80
2022-09-14T05:11:25.064Z,87.68
2022-09-14T05:13:52.176Z,87.87
2022-09-14T05:16:21.395Z,88.55
2022-09-14T05:18:48.718Z,88.33
2022-09-14T05:21:17.483Z,89.70
2022-09-14T05:23:44.537Z,90.13
2022-09-14T05:26:11.580Z,90.71
2022-09-14T05:28:38.682Z,90.74
2022-09-14T05:31:07.560Z,90.63
2022-09-14T05:33:34.665Z,91.07
2022-09-14T05:36:06.330Z,91.16
2022-09-14T05:38:35.142Z,91.49
2022-09-14T05:41:01.853Z,91.09
2022-09-14T05:43:29.401Z,91.80
2022-09-14T05:45:56.469Z,91.04
2022-09-14T05:48:22.957Z,90.86
2022-09-14T05:50:49.311Z,90.33
2022-09-14T05:53:15.679Z,90.07
2022-09-14T05:55:42.069Z,89.18
2022-09-14T05:58:08.483Z,89.17
2022-09-14T06:00:34.953Z,89.46
2022-09-14T06:03:01.355Z,89.16
2022-09-14T06:05:28.153Z,88.20
2022-09-14T06:07:54.923Z,89.63
2022-09-14T06:10:21.958Z,87.78
2022-09-14T06:12:51.230Z,88.10
2022-09-14T06:15:21.443Z,87.88
2022-09-14T06:17:47.808Z,87.98
2022-09-14T06:20:14.854Z,87.39
2022-09-14T06:22:41.247Z,87.72
2022-09-14T06:25:07.993Z,87.79
2022-09-14T06:27:34.362Z,86.91
2022-09-14T06:30:00.800Z,86.76
2022-09-14T06:32:30.090Z,86.07
2022-09-14T06:34:56.763Z,86.48
2022-09-14T06:37:23.489Z,86.77
2022-09-14T06:39:49.957Z,86.76
2022-09-14T06:42:16.406Z,85.36
2022-09-14T06:44:42.908Z,85.77
2022-09-14T06:47:09.321Z,86.04
2022-09-14T06:49:35.716Z,86.11
2022-09-14T06:52:02.306Z,85.52
2022-09-14T06:54:29.163Z,85.73
2022-09-14T06:56:55.561Z,86.04
2022-09-14T06:59:22.058Z,85.93
2022-09-14T07:01:51.463Z,86.04
2022-09-14T07:04:18.653Z,85.12
2022-09-14T07:06:49.662Z,84.96
2022-09-14T07:09:17.930Z,85.75
2022-09-14T07:11:44.938Z,85.07
2022-09-14T07:14:11.909Z,85.98
2022-09-14T07:16:39.589Z,85.69
2022-09-14T07:19:09.703Z,85.49
2022-09-14T07:21:36.341Z,85.34
2022-09-14T07:24:03.317Z,85.67
2022-09-14T07:26:33.528Z,84.97
2022-09-14T07:29:02.143Z,84.70
2022-09-14T07:31:30.325Z,84.23
2022-09-14T07:33:58.860Z,84.13
2022-09-14T07:36:26.639Z,83.99
2022-09-14T07:38:54.037Z,83.18
2022-09-14T07:41:25.854Z,83.34
2022-09-14T07:43:53.008Z,83.28
2022-09-14T07:46:21.076Z,83.11
2022-09-14T07:48:48.885Z,83.11
2022-09-14T07:51:15.374Z,82.89
2022-09-14T07:53:43.249Z,83.03
2022-09-14T07:56:11.474Z,82.46
2022-09-14T07:58:38.858Z,83.05
2022-09-14T08:01:08.554Z,82.11
2022-09-14T08:03:40.165Z,82.19
2022-09-14T08:06:11.780Z,82.13
2022-09-14T08:08:41.838Z,82.66
2022-09-14T08:11:11.185Z,81.93
2022-09-14T08:13:40.613Z,82.89
2022-09-14T08:16:07.799Z,81.88
2022-09-14T08:18:35.828Z,81.69
2022-09-14T08:21:13.730Z,81.41
2022-09-14T08:23:41.431Z,80.52
2022-09-14T08:26:13.190Z,80.53
2022-09-14T08:28:39.604Z,80.71
2022-09-14T08:31:15.886Z,80.36
2022-09-14T08:33:44.923Z,80.04
2022-09-14T08:36:14.903Z,80.91
2022-09-14T08:38:41.524Z,79.58
2022-09-14T08:41:19.825Z,78.63
2022-09-14T08:43:46.730Z,78.84
2022-09-14T08:46:33.262Z,78.54
2022-09-14T08:49:02.478Z,78.79
2022-09-14T08:51:29.710Z,78.24
2022-09-14T08:53:59.381Z,78.38
2022-09-14T08:56:33.557Z,78.66
2022-09-14T08:59:09.164Z,79.45
2022-09-14T09:01:47.952Z,79.71
2022-09-14T09:04:29.298Z,78.88
2022-09-14T09:07:05.678Z,78.95
2022-09-14T09:09:50.453Z,79.63
2022-09-14T09:12:41.909Z,79.29
2022-09-14T09:15:29.283Z,79.56
2022-09-14T09:18:05.351Z,78.82
2022-09-14T09:20:40.336Z,78.84
2022-09-14T09:23:16.247Z,78.40
2022-09-14T09:26:01.270Z,78.37
2022-09-14T09:28:29.698Z,77.56
2022-09-14T09:31:01.026Z,77.30
2022-09-14T09:33:44.359Z,77.00
2022-09-14T09:36:18.020Z,76.22
2022-09-14T09:38:44.596Z,76.09
2022-09-14T09:41:35.295Z,75.70
2022-09-14T09:44:07.029Z,75.88
2022-09-14T09:46:35.597Z,76.09
2022-09-14T09:49:14.467Z,74.29
2022-09-14T09:51:41.157Z,75.36
2022-09-14T09:54:13.564Z,73.66
2022-09-14T09:56:51.970Z,73.32
2022-09-14T09:59:36.485Z,73.23
2022-09-14T10:02:26.984Z,73.35
2022-09-14T10:05:03.996Z,72.78
2022-09-14T10:07:32.904Z,72.28
2022-09-14T10:10:06.441Z,72.76
2022-09-14T10:12:33.570Z,73.69
2022-09-14T10:15:11.998Z,74.14
2022-09-14T10:17:38.535Z,73.22
2022-09-14T10:20:06.235Z,73.56
2022-09-14T10:22:34.759Z,73.37
2022-09-14T10:25:02.718Z,73.29
2022-09-14T10:28:01.606Z,73.42
2022-09-14T10:30:43.491Z,72.81
2022-09-14T10:33:15.039Z,72.71
2022-09-14T10:35:56.263Z,73.43
2022-09-14T10:38:52.937Z,73.30
2022-09-14T10:41:30.955Z,72.45
2022-09-14T10:44:00.340Z,72.63
2022-09-14T10:46:37.511Z,72.83
2022-09-14T10:49:27.234Z,72.07
2022-09-14T10:52:24.204Z,71.98
2022-09-14T10:55:06.984Z,71.95
2022-09-14T10:57:47.310Z,71.66
2022-09-14T11:00:18.563Z,71.50
2022-09-14T11:03:00.221Z,71.51
2022-09-14T11:05:31.368Z,71.92
2022-09-14T11:08:27.115Z,70.13
2022-09-14T11:11:15.208Z,70.55
2022-09-14T11:13:50.409Z,70.21
2022-09-14T11:16:28.921Z,69.72
2022-09-14T11:19:35.112Z,69.45
2022-09-14T11:22:20.137Z,68.47
2022-09-14T11:25:10.273Z,68.54
2022-09-14T11:27:46.411Z,68.48
2022-09-14T11:30:19.761Z,68.23
2022-09-14T11:32:53.440Z,68.28
2022-09-14T11:35:34.538Z,67.50
2022-09-14T11:38:07.512Z,67.84
2022-09-14T11:40:44.458Z,68.08
2022-09-14T11:43:17.504Z,66.25
2022-09-14T11:45:52.835Z,66.09
2022-09-14T11:48:42.488Z,65.62
2022-09-14T11:51:17.181Z,67.33
2022-09-14T11:53:44.992Z,65.90
2022-09-14T11:56:26.116Z,66.39
2022-09-14T11:58:58.729Z,66.65
2022-09-14T12:01:29.488Z,65.58
2022-09-14T12:04:01.987Z,64.86
2022-09-14T12:06:28.414Z,65.88
2022-09-14T12:08:54.926Z,65.32
2022-09-14T12:11:30.400Z,65.30
2022-09-14T12:14:26.829Z,66.27
2022-09-14T12:17:13.033Z,67.69
2022-09-14T12:19:52.252Z,66.24
2022-09-14T12:22:38.039Z,64.21
2022-09-14T12:25:14.775Z,63.23
2022-09-14T12:27:42.965Z,63.48
2022-09-14T12:30:54.116Z,64.39
2022-09-14T12:33:32.699Z,65.23
2022-09-14T12:36:32.250Z,62.68
2022-09-14T12:38:58.883Z,62.27
2022-09-14T12:41:25.237Z,61.65
2022-09-14T12:43:51.660Z,61.45
2022-09-14T12:46:21.352Z,61.57
2022-09-14T12:48:47.949Z,61.77
2022-09-14T12:51:21.124Z,62.98
2022-09-14T12:53:57.698Z,61.68
2022-09-14T12:56:35.068Z,61.53
2022-09-14T12:59:45.041Z,61.43
2022-09-14T13:02:37.595Z,62.07
2022-09-14T13:05:07.960Z,59.79
2022-09-14T13:07:36.140Z,60.21
2022-09-14T13:10:06.263Z,60.50
2022-09-14T13:12:44.750Z,60.24
2022-09-14T13:15:25.749Z,60.00
2022-09-14T13:18:18.046Z,60.56
2022-09-14T13:20:56.080Z,59.47
2022-09-14T13:23:26.858Z,59.15
2022-09-14T13:25:53.680Z,58.85
2022-09-14T13:28:21.196Z,58.72
2022-09-14T13:30:55.243Z,58.05
2022-09-14T13:33:21.795Z,56.94
2022-09-14T13:35:55.093Z,56.92
2022-09-14T13:38:25.318Z,57.93
2022-09-14T13:40:55.088Z,57.95
2022-09-14T13:43:22.980Z,57.80
2022-09-14T13:45:51.542Z,57.52
2022-09-14T13:48:20.257Z,57.55
2022-09-14T13:50:51.801Z,57.04
2022-09-14T13:53:36.277Z,58.18
2022-09-14T13:56:31.061Z,58.66
2022-09-14T13:59:06.875Z,57.87
2022-09-14T14:01:37.691Z,57.49
2022-09-14T14:04:04.390Z,56.11
2022-09-14T14:06:32.703Z,57.15
2022-09-14T14:09:07.991Z,57.88
2022-09-14T14:11:41.632Z,57.16
2022-09-14T14:14:17.139Z,57.32
2022-09-14T14:17:19.898Z,57.55
2022-09-14T14:19:46.772Z,57.51
2022-09-14T14:22:26.723Z,56.92
2022-09-14T14:25:12.824Z,56.53
2022-09-14T14:27:46.079Z,56.62
2022-09-14T14:30:21.141Z,56.74
2022-09-14T14:32:51.662Z,57.18
2022-09-14T14:35:22.213Z,57.33
2022-09-14T14:37:50.130Z,56.15
2022-09-14T14:40:17.786Z,56.49
2022-09-14T14:42:45.064Z,55.91
2022-09-14T14:45:18.972Z,56.90
2022-09-14T14:47:47.216Z,56.16
2022-09-14T14:50:27.907Z,56.99
2022-09-14T14:52:54.626Z,56.83
2022-09-14T14:55:22.270Z,57.81
2022-09-14T14:57:50.088Z,56.62
2022-09-14T15:00:19.780Z,57.58
2022-09-14T15:02:46.314Z,57.89
2022-09-14T15:05:13.272Z,56.11
2022-09-14T15:07:39.739Z,57.92
2022-09-14T15:10:07.915Z,57.69
2022-09-14T15:12:35.627Z,57.43
2022-09-14T15:15:02.272Z,56.65
2022-09-14T15:17:28.752Z,57.04
2022-09-14T15:19:55.145Z,57.41
2022-09-14T15:22:21.676Z,56.75
2022-09-14T15:24:48.068Z,57.59
2022-09-14T15:27:14.755Z,57.56
2022-09-14T15:29:41.159Z,57.25
2022-09-14T15:32:07.596Z,57.22
2022-09-14T15:34:34.052Z,57.98
2022-09-14T15:37:00.455Z,58.70
2022-09-14T15:39:29.469Z,58.87
2022-09-14T15:41:56.217Z,58.79
2022-09-14T15:44:22.932Z,59.35
2022-09-14T15:46:49.833Z,58.60
2022-09-14T15:49:25.992Z,58.97
2022-09-14T15:51:54.367Z,59.45
2022-09-14T15:54:25.465Z,60.12
2022-09-14T15:56:54.848Z,60.61
2022-09-14T15:59:22.093Z,60.30
2022-09-14T16:01:48.833Z,60.08
2022-09-14T16:04:15.301Z,60.56
2022-09-14T16:06:41.931Z,59.57
2022-09-14T16:09:10.517Z,60.11
2022-09-14T16:11:38.380Z,60.55
2022-09-14T16:14:06.599Z,59.53
2022-09-14T16:16:34.837Z,59.48
2022-09-14T16:19:11.608Z,59.62
2022-09-14T16:21:38.642Z,59.96
2022-09-14T16:24:07.677Z,60.17
2022-09-14T16:26:36.551Z,60.88
2022-09-14T16:29:04.604Z,59.16
2022-09-14T16:31:33.160Z,58.92
2022-09-14T16:34:02.112Z,58.73
2022-09-14T16:36:32.343Z,58.43
2022-09-14T16:39:01.708Z,58.88
2022-09-14T16:41:28.589Z,59.09
2022-09-14T16:43:56.916Z,58.93
2022-09-14T16:46:24.280Z,58.97
2022-09-14T16:48:51.411Z,59.78
2022-09-14T16:51:20.500Z,60.10
2022-09-14T16:53:48.431Z,60.18
2022-09-14T16:56:17.388Z,59.97
2022-09-14T16:58:44.876Z,60.76
2022-09-14T17:01:13.068Z,60.63
2022-09-14T17:03:40.357Z,61.05
2022-09-14T17:06:09.470Z,61.53
2022-09-14T17:08:38.660Z,62.17
2022-09-14T17:11:07.502Z,62.12
2022-09-14T17:13:34.348Z,61.67
2022-09-14T17:16:10.921Z,62.07
2022-09-14T17:18:38.799Z,62.63
2022-09-14T17:21:10.990Z,62.78
2022-09-14T17:23:37.766Z,63.32
2022-09-14T17:26:06.462Z,63.80
2022-09-14T17:28:34.806Z,63.29
2022-09-14T17:31:03.226Z,64.08
2022-09-14T17:33:30.556Z,64.22
2022-09-14T17:35:58.635Z,65.02
2022-09-14T17:38:28.171Z,65.63
2022-09-14T17:41:13.870Z,64.54
2022-09-14T17:43:41.103Z,65.04
2022-09-14T17:46:12.855Z,65.08
2022-09-14T17:48:40.780Z,64.98
2022-09-14T17:51:14.162Z,65.03
2022-09-14T17:53:42.540Z,65.04
2022-09-14T17:56:10.902Z,64.99
2022-09-14T17:58:37.556Z,65.48
2022-09-14T18:01:06.015Z,65.36
2022-09-14T18:03:32.563Z,65.50
2022-09-14T18:05:59.007Z,65.90
2022-09-14T18:08:25.490Z,65.60
2022-09-14T18:10:51.865Z,65.95
2022-09-14T18:13:18.259Z,65.68
2022-09-14T18:15:44.951Z,65.95
2022-09-14T18:18:12.587Z,65.91
2022-09-14T18:20:38.971Z,65.66
2022-09-14T18:23:05.384Z,66.02
2022-09-14T18:25:32.063Z,66.61
2022-09-14T18:27:58.452Z,66.31
2022-09-14T18:30:24.879Z,66.25
2022-09-14T18:32:52.749Z,66.96
2022-09-14T18:35:19.172Z,66.98
2022-09-14T18:37:45.620Z,67.18
2022-09-14T18:40:12.050Z,67.04
2022-09-14T18:42:38.508Z,67.19
2022-09-14T18:45:05.281Z,67.80
2022-09-14T18:47:31.661Z,68.33
2022-09-14T18:49:58.038Z,68.71
2022-09-14T18:52:24.511Z,69.38
2022-09-14T18:54:50.888Z,68.45
2022-09-14T18:57:19.355Z,68.95
2022-09-14T18:59:45.779Z,69.39
2022-09-14T19:02:12.215Z,69.20
2022-09-14T19:04:38.827Z,69.03
2022-09-14T19:07:05.631Z,69.70
2022-09-14T19:09:32.063Z,70.44
2022-09-14T19:11:58.427Z,69.76
2022-09-14T19:14:24.900Z,70.43
2022-09-14T19:16:51.461Z,71.17
2022-09-14T19:19:17.893Z,71.69
2022-09-14T19:21:45.180Z,72.09
2022-09-14T19:24:14.923Z,71.83
2022-09-14T19:26:46.058Z,72.66
2022-09-14T19:29:20.073Z,73.53
2022-09-14T19:31:50.807Z,73.32
2022-09-14T19:34:18.812Z,73.49
2022-09-14T19:36:46.004Z,73.46
2022-09-14T19:39:12.557Z,73.45
2022-09-14T19:41:39.926Z,73.94
2022-09-14T19:44:07.597Z,73.71
2022-09-14T19:46:36.266Z,73.90
2022-09-14T19:49:02.767Z,74.00
2022-09-14T19:51:30.648Z,74.00
2022-09-14T19:53:59.387Z,74.25
2022-09-14T19:56:28.079Z,74.88
2022-09-14T19:58:57.271Z,75.31
2022-09-14T20:01:25.513Z,74.85
2022-09-14T20:03:52.930Z,75.43
2022-09-14T20:06:23.171Z,75.35
2022-09-14T20:08:51.573Z,76.65
2022-09-14T20:11:20.379Z,76.72
2022-09-14T20:13:48.368Z,77.62
2022-09-14T20:16:28.529Z,77.59
2022-09-14T20:18:57.084Z,78.28
2022-09-14T20:21:25.829Z,78.63
2022-09-14T20:24:16.220Z,78.59
2022-09-14T20:26:44.099Z,79.93
2022-09-14T20:29:11.037Z,80.27
2022-09-14T20:31:38.530Z,79.78
2022-09-14T20:34:05.167Z,80.54
2022-09-14T20:36:32.337Z,80.65
2022-09-14T20:38:59.556Z,80.97
2022-09-14T20:41:33.190Z,80.64
2022-09-14T20:43:59.762Z,80.95
2022-09-14T20:46:31.796Z,81.54
2022-09-14T20:48:58.529Z,81.26
2022-09-14T20:51:25.321Z,81.15
2022-09-14T20:53:52.326Z,81.30
2022-09-14T20:56:22.201Z,81.64
2022-09-14T20:58:49.462Z,81.76
2022-09-14T21:01:18.926Z,82.12
2022-09-14T21:03:47.461Z,82.12
2022-09-14T21:06:16.439Z,82.26
2022-09-14T21:08:43.311Z,82.50
2022-09-14T21:11:12.797Z,82.45
2022-09-14T21:13:39.736Z,82.22
2022-09-14T21:16:15.516Z,82.50
2022-09-14T21:18:42.612Z,82.85
2022-09-14T21:21:19.721Z,82.48
2022-09-14T21:23:48.489Z,83.43
2022-09-14T21:26:15.167Z,83.62
2022-09-14T21:28:42.180Z,83.96
2022-09-14T21:31:10.393Z,83.58
2022-09-14T21:33:39.415Z,83.63
2022-09-14T21:36:14.678Z,84.01
2022-09-14T21:38:41.360Z,83.81
2022-09-14T21:41:09.919Z,84.35
2022-09-14T21:43:38.051Z,84.26
2022-09-14T21:46:05.113Z,84.64
2022-09-14T21:48:32.013Z,84.73
2022-09-14T21:51:05.268Z,84.80
2022-09-14T21:53:32.759Z,84.96
2022-09-14T21:55:59.256Z,85.48
2022-09-14T21:58:25.702Z,85.80
2022-09-14T22:00:59.091Z,85.72
2022-09-14T22:03:26.035Z,86.06
2022-09-14T22:06:00.953Z,85.87
2022-09-14T22:08:29.395Z,86.32
2022-09-14T22:11:01.861Z,85.96
2022-09-14T22:13:28.239Z,85.94
2022-09-14T22:15:54.978Z,86.02
2022-09-14T22:18:21.399Z,86.58
2022-09-14T22:20:56.845Z,86.72
2022-09-14T22:23:23.312Z,87.07
2022-09-14T22:25:49.722Z,86.95
2022-09-14T22:28:16.110Z,87.22
2022-09-14T22:30:53.913Z,87.04
2022-09-14T22:33:22.230Z,87.05
2022-09-14T22:35:56.686Z,87.20
2022-09-14T22:38:25.201Z,88.01
2022-09-14T22:40:59.653Z,87.59
2022-09-14T22:43:27.087Z,87.18
2022-09-14T22:45:54.439Z,87.24
2022-09-14T22:48:22.391Z,87.29
2022-09-14T22:50:55.994Z,87.28
2022-09-14T22:53:24.636Z,87.44
2022-09-14T22:55:51.543Z,87.44
2022-09-14T22:58:20.152Z,87.26
2022-09-14T23:00:47.499Z,87.31
2022-09-14T23:03:15.692Z,87.27
2022-09-14T23:05:53.661Z,86.99
2022-09-14T23:08:20.353Z,87.29
2022-09-14T23:10:47.860Z,87.48
2022-09-14T23:13:15.330Z,87.52
2022-09-14T23:15:42.052Z,88.16
2022-09-14T23:18:09.015Z,87.67
2022-09-14T23:20:40.081Z,88.29
2022-09-14T23:23:07.187Z,88.40
2022-09-14T23:25:35.402Z,88.99
2022-09-14T23:28:03.235Z,88.97
2022-09-14T23:30:29.735Z,89.05
2022-09-14T23:32:56.439Z,89.36
2022-09-14T23:35:22.855Z,89.33
2022-09-14T23:37:49.338Z,89.15
2022-09-14T23:40:18.173Z,89.34
2022-09-14T23:42:44.641Z,89.45
2022-09-14T23:45:11.647Z,89.37
2022-09-14T23:47:38.011Z,89.32
2022-09-14T23:50:04.880Z,89.55
2022-09-14T23:52:31.852Z,89.71
2022-09-14T23:54:58.377Z,90.14
2022-09-14T23:57:24.736Z,90.20
2022-09-14T23:59:51.360Z,89.99
